Sign-in with your pilot id or email, or register

ICAO: YPDN Name / Country: Darwin International Airport / Australia
Latitude: -12.4147 Longitude: 130.877
Total Arrivals:
Strict Standards: Non-static method AirportData::getarrflights() should not be called statically, assuming $this from incompatible context in /var/www/customers/vh-7192/web/home/phpvms/core/templates/airport_info.tpl on line 18
3
Total Departures:
Strict Standards: Non-static method AirportData::getdeptflights() should not be called statically, assuming $this from incompatible context in /var/www/customers/vh-7192/web/home/phpvms/core/templates/airport_info.tpl on line 21
3
Latest Arrival: MTA5PM (YBCS-YPDN) Tibor Berces Latest Departure: MTA5PM (YPDN-RPLL) Tibor Berces
Metar: YPDN 172300Z 21003KT 9999 FEW020 26/20 Q1017 NOSIG
More info

Charts for YPDN


NOTAM


Warning: file_get_contents(http://api.vateud.net/notams/YPDN.json): failed to open stream: Redirection limit reached, aborting in /var/www/customers/vh-7192/web/home/phpvms/core/common/NOTAMSData.class.php on line 18

Warning: Invalid argument supplied for foreach() in /var/www/customers/vh-7192/web/home/phpvms/core/common/NOTAMSData.class.php on line 22

Darwin International Airport